Time;durP1;ratioP1;P1;durP2;ratioP2;P2;SDS_P1;SDS_P2;PMS_P1;PMS_P2;Temp;Humidity;BMP_temperature;BMP_pressure;BME280_temperature;BME280_humidity;BME280_pressure;Samples;Min_cycle;Max_cycle;Signal;HPM_P1;HPM_P2
2022/05/07 00:00:51;;;;;;;19.05;11.07;;;11.10;99.90;;;;;;5034723;28;20045;-79
2022/05/07 00:03:16;;;;;;;22.05;11.63;;;11.00;99.90;;;;;;5035232;28;20041;-79
2022/05/07 00:05:42;;;;;;;18.42;10.85;;;10.90;99.90;;;;;;5034850;28;20041;-79
2022/05/07 00:08:07;;;;;;;23.10;12.65;;;10.90;99.90;;;;;;5035036;28;20084;-80
2022/05/07 00:10:33;;;;;;;26.02;12.43;;;10.90;99.90;;;;;;5052542;28;20051;-79
2022/05/07 00:12:59;;;;;;;20.48;12.60;;;10.90;99.90;;;;;;5034806;28;20049;-79
2022/05/07 00:15:24;;;;;;;24.15;13.13;;;10.90;99.90;;;;;;5035086;28;20057;-79
2022/05/07 00:18:02;;;;;;;22.08;12.68;;;10.90;99.90;;;;;;5035250;28;20107;-79
2022/05/07 00:20:28;;;;;;;28.88;13.23;;;10.80;99.90;;;;;;5040728;28;20029;-81
2022/05/07 00:22:55;;;;;;;23.20;13.07;;;10.80;99.90;;;;;;5060702;28;20067;-81
2022/05/07 00:25:20;;;;;;;25.55;14.70;;;10.80;99.90;;;;;;5053311;28;20150;-80
2022/05/07 00:27:46;;;;;;;22.55;13.70;;;10.80;99.90;;;;;;5018006;28;20523;-80
2022/05/07 00:30:12;;;;;;;26.08;14.48;;;10.90;99.90;;;;;;5052078;28;20496;-79
2022/05/07 00:32:37;;;;;;;27.38;14.30;;;11.00;99.90;;;;;;5034602;28;20041;-79
2022/05/07 00:35:03;;;;;;;21.92;14.55;;;11.00;99.90;;;;;;5034774;28;20134;-79
2022/05/07 00:37:29;;;;;;;21.23;13.60;;;11.00;99.90;;;;;;5034662;28;20512;-80
2022/05/07 00:39:54;;;;;;;24.48;14.77;;;11.00;99.90;;;;;;5034110;28;20041;-80
2022/05/07 00:42:20;;;;;;;25.48;15.25;;;11.00;99.90;;;;;;5034320;28;20045;-79
2022/05/07 00:44:46;;;;;;;22.85;14.38;;;11.00;99.90;;;;;;5052105;28;20415;-79
2022/05/07 00:47:14;;;;;;;24.08;15.07;;;11.10;99.90;;;;;;5034115;28;20041;-79
2022/05/07 00:49:46;;;;;;;25.10;14.25;;;11.10;99.90;;;;;;5033743;28;20041;-79
2022/05/07 00:52:12;;;;;;;22.77;14.60;;;11.20;99.90;;;;;;5034127;28;20052;-79
2022/05/07 00:54:38;;;;;;;21.52;12.85;;;11.30;99.90;;;;;;5034358;28;20056;-79
2022/05/07 00:57:04;;;;;;;26.92;13.73;;;11.30;99.90;;;;;;5034075;28;20049;-79
2022/05/07 00:59:30;;;;;;;23.60;14.68;;;11.40;99.90;;;;;;5050691;28;20518;-80
2022/05/07 01:01:55;;;;;;;23.42;14.82;;;11.40;99.90;;;;;;5033990;28;20028;-80
2022/05/07 01:04:21;;;;;;;24.10;14.95;;;11.40;99.90;;;;;;5033544;28;20041;-80
2022/05/07 01:06:47;;;;;;;22.60;12.98;;;11.40;99.90;;;;;;5033989;28;20120;-79
2022/05/07 01:09:12;;;;;;;24.75;14.32;;;11.40;99.90;;;;;;5033867;28;20070;-79
2022/05/07 01:11:40;;;;;;;23.70;14.13;;;11.30;99.90;;;;;;5033549;28;20052;-80
2022/05/07 01:14:05;;;;;;;22.17;14.73;;;11.30;99.90;;;;;;5033983;28;20515;-80
2022/05/07 01:16:31;;;;;;;25.65;14.60;;;11.30;99.90;;;;;;5033818;28;20052;-81
2022/05/07 01:18:57;;;;;;;21.02;15.45;;;11.20;99.90;;;;;;5033506;28;20065;-79
2022/05/07 01:21:22;;;;;;;24.90;15.02;;;11.10;99.90;;;;;;5033331;28;20040;-79
2022/05/07 01:23:48;;;;;;;23.02;14.20;;;11.10;99.90;;;;;;5033843;28;20395;-79
2022/05/07 01:26:14;;;;;;;22.48;13.70;;;11.10;99.90;;;;;;5033618;28;20037;-81
2022/05/07 01:28:40;;;;;;;25.45;13.60;;;11.10;99.90;;;;;;5017209;28;20076;-80
2022/05/07 01:31:06;;;;;;;21.08;12.52;;;11.10;99.90;;;;;;5033279;28;20479;-80
2022/05/07 01:33:33;;;;;;;23.30;14.85;;;11.10;99.90;;;;;;5033768;28;20415;-79
2022/05/07 01:36:03;;;;;;;21.52;13.20;;;11.10;99.90;;;;;;5033636;28;20033;-79
2022/05/07 01:38:30;;;;;;;24.00;15.13;;;11.10;99.90;;;;;;5033261;28;20449;-79
2022/05/07 01:40:56;;;;;;;26.55;14.68;;;11.10;99.90;;;;;;5032833;28;20041;-80
2022/05/07 01:43:22;;;;;;;21.15;13.43;;;11.10;99.90;;;;;;5033377;28;20116;-79
2022/05/07 01:45:47;;;;;;;19.27;12.98;;;11.10;99.90;;;;;;5033635;28;20456;-79
2022/05/07 01:48:13;;;;;;;23.88;12.70;;;11.10;99.90;;;;;;5033249;28;20051;-79
2022/05/07 01:50:42;;;;;;;22.00;12.70;;;11.10;99.90;;;;;;5033077;28;20055;-79
2022/05/07 01:53:09;;;;;;;22.63;13.70;;;11.10;99.90;;;;;;5033217;28;20045;-79
2022/05/07 01:55:35;;;;;;;28.88;14.27;;;11.20;99.90;;;;;;5033347;28;20052;-79
2022/05/07 01:58:02;;;;;;;22.40;14.43;;;11.20;99.90;;;;;;5033213;28;20067;-80
2022/05/07 02:00:29;;;;;;;20.92;14.27;;;11.30;99.90;;;;;;5032759;28;20411;-79
2022/05/07 02:02:55;;;;;;;20.77;12.77;;;11.40;99.90;;;;;;5033028;28;20048;-81
2022/05/07 02:05:21;;;;;;;23.90;13.80;;;11.50;99.90;;;;;;5033323;28;20116;-79
2022/05/07 02:07:47;;;;;;;19.65;14.00;;;11.50;99.90;;;;;;5033080;28;20125;-80
2022/05/07 02:10:12;;;;;;;23.35;14.77;;;11.50;99.90;;;;;;5050830;28;20407;-79
2022/05/07 02:12:38;;;;;;;22.27;14.05;;;11.60;99.90;;;;;;5033272;28;20044;-79
2022/05/07 02:15:03;;;;;;;23.77;14.63;;;11.60;99.90;;;;;;5032912;28;20056;-79
2022/05/07 02:17:29;;;;;;;23.83;14.07;;;11.70;99.90;;;;;;5036211;28;20338;-81
2022/05/07 02:19:55;;;;;;;24.35;14.95;;;11.70;99.90;;;;;;5036465;28;20045;-79
2022/05/07 02:22:20;;;;;;;23.02;14.55;;;11.70;99.90;;;;;;5020509;28;20040;-79
2022/05/07 02:24:46;;;;;;;22.25;14.02;;;11.80;99.90;;;;;;5036769;28;20040;-79
2022/05/07 02:27:12;;;;;;;23.95;14.18;;;11.80;99.90;;;;;;5036988;28;20048;-79
2022/05/07 02:29:37;;;;;;;24.77;14.88;;;11.80;99.90;;;;;;5036798;28;20372;-80
2022/05/07 02:32:04;;;;;;;21.58;14.32;;;11.80;99.90;;;;;;5020516;28;20500;-79
2022/05/07 02:34:31;;;;;;;22.45;14.18;;;11.90;99.90;;;;;;5036669;28;20048;-79
2022/05/07 02:36:58;;;;;;;25.52;15.05;;;11.90;99.90;;;;;;5020262;28;20052;-79
2022/05/07 02:39:23;;;;;;;32.30;16.88;;;11.90;99.90;;;;;;5036534;28;20388;-80
2022/05/07 02:44:33;;;;;;;28.15;15.98;;;11.90;99.90;;;;;;5036386;28;20052;-79
2022/05/07 02:46:58;;;;;;;25.40;15.55;;;11.90;99.90;;;;;;5036664;28;20040;-79
2022/05/07 02:49:24;;;;;;;26.00;15.90;;;11.90;99.90;;;;;;5054203;28;20063;-79
2022/05/07 02:51:50;;;;;;;30.05;16.35;;;11.90;99.90;;;;;;5052500;28;20474;-79
2022/05/07 02:54:15;;;;;;;25.45;17.02;;;11.90;99.90;;;;;;5036070;28;20045;-79
2022/05/07 02:56:41;;;;;;;26.95;17.58;;;12.00;99.90;;;;;;5035965;28;20399;-79
2022/05/07 02:59:07;;;;;;;29.08;16.70;;;12.00;99.90;;;;;;5036004;28;20041;-79
2022/05/07 03:01:32;;;;;;;29.23;16.67;;;12.00;99.90;;;;;;5052394;28;20041;-79
2022/05/07 03:03:58;;;;;;;26.60;15.65;;;11.90;99.90;;;;;;5036287;28;20079;-79
2022/05/07 03:06:23;;;;;;;25.80;15.73;;;12.00;99.90;;;;;;5036107;28;20492;-79
2022/05/07 03:08:49;;;;;;;25.98;15.38;;;11.90;99.90;;;;;;5036159;28;20044;-79
2022/05/07 03:11:14;;;;;;;26.75;16.27;;;11.90;99.90;;;;;;5035498;28;20795;-79
2022/05/07 03:13:40;;;;;;;29.13;16.17;;;11.90;99.90;;;;;;5035865;28;20045;-79
2022/05/07 03:16:06;;;;;;;25.70;15.45;;;11.90;99.90;;;;;;5035732;28;20056;-79
2022/05/07 03:18:32;;;;;;;25.58;15.32;;;12.00;99.90;;;;;;5036038;28;20037;-79
2022/05/07 03:20:58;;;;;;;29.05;16.52;;;12.00;99.90;;;;;;5035218;28;20049;-79
2022/05/07 03:23:25;;;;;;;27.63;16.10;;;11.90;99.90;;;;;;5035709;28;20060;-79
2022/05/07 03:25:51;;;;;;;29.63;17.13;;;11.90;99.90;;;;;;5035506;28;20057;-79
2022/05/07 03:28:16;;;;;;;25.60;16.38;;;11.90;99.90;;;;;;5052938;28;20037;-79
2022/05/07 03:30:42;;;;;;;26.45;14.23;;;11.90;99.90;;;;;;5035272;28;20543;-79
2022/05/07 03:33:08;;;;;;;28.10;17.13;;;11.90;99.90;;;;;;5053467;28;20075;-79
2022/05/07 03:35:33;;;;;;;25.02;15.63;;;11.90;99.90;;;;;;5038445;28;20055;-77
2022/05/07 03:37:59;;;;;;;26.17;16.10;;;11.90;99.90;;;;;;5059593;28;20056;-79
2022/05/07 03:40:24;;;;;;;30.30;15.73;;;11.90;99.90;;;;;;5050861;28;20048;-80
2022/05/07 03:42:50;;;;;;;27.00;16.23;;;11.90;99.90;;;;;;5035316;28;20048;-80
2022/05/07 03:45:16;;;;;;;27.92;16.65;;;11.90;99.90;;;;;;5051886;28;20041;-79
2022/05/07 03:47:41;;;;;;;26.63;15.55;;;11.90;99.90;;;;;;5034847;28;20044;-79
2022/05/07 03:50:07;;;;;;;25.88;16.73;;;11.90;99.90;;;;;;5034845;28;20080;-79
2022/05/07 03:55:17;;;;;;;33.83;17.15;;;12.00;99.90;;;;;;5035078;28;20052;-79
2022/05/07 03:57:42;;;;;;;29.90;17.60;;;12.00;99.90;;;;;;5035375;28;20041;-79
2022/05/07 04:00:09;;;;;;;25.35;15.68;;;12.00;99.90;;;;;;5034665;28;20084;-81
2022/05/07 04:02:35;;;;;;;26.10;15.65;;;12.00;99.90;;;;;;5018791;28;20041;-81
2022/05/07 04:05:04;;;;;;;28.35;17.70;;;12.10;99.90;;;;;;5035041;28;20053;-81
2022/05/07 04:07:30;;;;;;;31.23;17.25;;;12.00;99.90;;;;;;5035171;28;20036;-81
2022/05/07 04:09:56;;;;;;;29.60;17.40;;;12.10;99.90;;;;;;5034352;28;20052;-81
2022/05/07 04:12:24;;;;;;;28.88;17.55;;;12.10;99.90;;;;;;5035247;28;20045;-81
2022/05/07 04:14:50;;;;;;;28.50;16.38;;;12.10;99.90;;;;;;5035234;28;20043;-81
2022/05/07 04:17:15;;;;;;;30.20;16.95;;;12.10;99.90;;;;;;5035416;28;20396;-81
2022/05/07 04:19:41;;;;;;;30.80;16.20;;;12.20;99.90;;;;;;5034765;28;20634;-81
2022/05/07 04:22:06;;;;;;;30.58;16.25;;;12.20;99.90;;;;;;5034427;28;20036;-79
2022/05/07 04:24:36;;;;;;;28.17;16.08;;;12.20;99.90;;;;;;5034345;28;20419;-80
2022/05/07 04:27:02;;;;;;;28.27;16.63;;;12.20;99.90;;;;;;5034712;28;20376;-79
2022/05/07 04:29:27;;;;;;;28.10;16.75;;;12.20;99.90;;;;;;5034072;28;20131;-79
2022/05/07 04:31:53;;;;;;;30.65;17.35;;;12.20;99.90;;;;;;5034138;28;20072;-79
2022/05/07 04:34:19;;;;;;;25.38;17.27;;;12.20;99.90;;;;;;5034742;28;20041;-79
2022/05/07 04:36:44;;;;;;;27.98;17.40;;;12.20;99.90;;;;;;5034140;28;20083;-79
2022/05/07 04:39:10;;;;;;;27.27;16.92;;;12.20;99.90;;;;;;5033104;28;20178;-79
2022/05/07 04:41:35;;;;;;;26.73;17.00;;;12.20;99.90;;;;;;5050557;28;20051;-80
2022/05/07 04:44:01;;;;;;;27.48;16.17;;;12.30;99.90;;;;;;5050431;28;20040;-80
2022/05/07 04:46:27;;;;;;;26.42;16.17;;;12.30;99.90;;;;;;5034365;28;20124;-79
2022/05/07 04:48:52;;;;;;;24.80;16.08;;;12.30;99.90;;;;;;5033794;28;20037;-79
2022/05/07 04:51:18;;;;;;;30.27;18.15;;;12.40;99.90;;;;;;5033654;28;20037;-79
2022/05/07 04:53:44;;;;;;;25.80;16.17;;;12.40;99.90;;;;;;5050614;28;20048;-79
2022/05/07 04:56:10;;;;;;;29.40;17.40;;;12.40;99.90;;;;;;5034032;28;20041;-79
2022/05/07 04:58:36;;;;;;;30.05;18.13;;;12.40;99.90;;;;;;5033751;28;20381;-80
2022/05/07 05:01:01;;;;;;;27.17;16.77;;;12.40;99.90;;;;;;5033437;28;20041;-79
2022/05/07 05:03:27;;;;;;;24.15;16.50;;;12.40;99.90;;;;;;5033590;28;20037;-79
2022/05/07 05:05:52;;;;;;;26.48;17.17;;;12.40;99.90;;;;;;5033799;28;20047;-79
2022/05/07 05:08:18;;;;;;;28.33;17.80;;;12.50;99.90;;;;;;5033759;28;20048;-79
2022/05/07 05:10:44;;;;;;;26.75;16.92;;;12.40;99.90;;;;;;5033375;28;20110;-79
2022/05/07 05:13:09;;;;;;;32.17;18.52;;;12.50;99.90;;;;;;5033680;28;20128;-79
2022/05/07 05:15:35;;;;;;;27.58;17.55;;;12.50;99.90;;;;;;5033888;28;20492;-79
2022/05/07 05:18:01;;;;;;;26.35;16.25;;;12.50;99.90;;;;;;5033386;28;20084;-79
2022/05/07 05:20:26;;;;;;;27.02;17.13;;;12.60;99.90;;;;;;5032811;28;20052;-79
2022/05/07 05:22:52;;;;;;;29.13;16.77;;;12.60;99.90;;;;;;5033547;28;20040;-79
2022/05/07 05:25:20;;;;;;;28.55;17.02;;;12.60;99.90;;;;;;5051133;28;20079;-79
2022/05/07 05:27:46;;;;;;;32.67;18.38;;;12.60;99.90;;;;;;5033388;28;20045;-79
2022/05/07 05:30:12;;;;;;;28.10;16.80;;;12.70;99.90;;;;;;5032987;28;20041;-79
2022/05/07 05:32:37;;;;;;;29.30;16.83;;;12.80;99.90;;;;;;5033531;28;20076;-79
2022/05/07 05:35:04;;;;;;;27.35;16.30;;;12.80;99.90;;;;;;5051086;28;20083;-80
2022/05/07 05:37:32;;;;;;;28.42;16.83;;;12.80;99.90;;;;;;5033187;28;20128;-79
2022/05/07 05:39:57;;;;;;;25.20;15.50;;;12.90;99.90;;;;;;5032599;28;20045;-79
2022/05/07 05:42:24;;;;;;;28.73;16.73;;;12.90;99.90;;;;;;5033029;28;20041;-79
2022/05/07 05:44:50;;;;;;;26.90;16.05;;;13.00;99.90;;;;;;5033041;28;20051;-79
2022/05/07 05:47:15;;;;;;;26.80;16.70;;;13.10;99.90;;;;;;5033137;28;20419;-79
2022/05/07 05:49:41;;;;;;;28.80;17.98;;;13.10;99.90;;;;;;5032628;28;20060;-79
2022/05/07 05:52:08;;;;;;;28.08;16.38;;;13.20;99.90;;;;;;5032978;28;20041;-79
2022/05/07 05:54:34;;;;;;;26.67;16.38;;;13.40;99.90;;;;;;5033437;28;20064;-80
2022/05/07 05:57:00;;;;;;;32.83;17.08;;;13.50;99.90;;;;;;5033414;28;20048;-79
2022/05/07 05:59:26;;;;;;;27.17;17.45;;;13.60;99.90;;;;;;5032986;28;20056;-79
2022/05/07 06:01:52;;;;;;;32.25;19.27;;;13.70;99.90;;;;;;5032883;28;20033;-80
2022/05/07 06:04:18;;;;;;;32.63;17.02;;;13.80;99.90;;;;;;5033646;28;20049;-80
2022/05/07 06:06:43;;;;;;;26.23;16.83;;;13.90;99.90;;;;;;5033126;28;20526;-79
2022/05/07 06:09:09;;;;;;;26.20;16.92;;;14.10;99.90;;;;;;5016723;28;20562;-80
2022/05/07 06:11:35;;;;;;;25.92;18.02;;;14.10;99.90;;;;;;5032648;28;20044;-79
2022/05/07 06:14:01;;;;;;;27.83;17.40;;;14.20;99.90;;;;;;5033352;28;20182;-80
2022/05/07 06:16:26;;;;;;;30.45;18.02;;;14.30;99.90;;;;;;5033327;28;20492;-82
2022/05/07 06:18:52;;;;;;;26.95;17.38;;;14.40;99.90;;;;;;5036375;28;20087;-81
2022/05/07 06:21:18;;;;;;;28.52;17.63;;;14.50;99.90;;;;;;5034901;28;20098;-81
2022/05/07 06:23:44;;;;;;;29.95;18.02;;;14.60;99.90;;;;;;5035447;28;20152;-81
2022/05/07 06:28:53;;;;;;;24.65;16.50;;;14.70;99.90;;;;;;5035641;28;20152;-81
2022/05/07 06:31:19;;;;;;;24.50;15.55;;;14.70;99.90;;;;;;5034344;28;20133;-81
2022/05/07 06:33:45;;;;;;;26.48;16.55;;;14.70;99.90;;;;;;5051465;28;20116;-80
2022/05/07 06:36:10;;;;;;;30.42;15.77;;;14.80;99.90;;;;;;5032982;28;20041;-82
2022/05/07 06:38:37;;;;;;;28.83;16.08;;;14.90;99.90;;;;;;5036578;28;20120;-81
2022/05/07 06:41:04;;;;;;;34.28;16.75;;;15.00;99.90;;;;;;5036250;28;20474;-81
2022/05/07 06:43:31;;;;;;;23.38;14.43;;;15.10;99.90;;;;;;5036716;28;20041;-80
2022/05/07 06:45:57;;;;;;;26.27;14.50;;;15.30;99.90;;;;;;5035836;28;20508;-81
2022/05/07 06:48:24;;;;;;;22.63;14.77;;;15.60;99.90;;;;;;5034760;28;20045;-81
2022/05/07 06:50:49;;;;;;;21.70;14.27;;;15.90;99.90;;;;;;5033491;28;20041;-81
2022/05/07 06:53:15;;;;;;;21.77;13.25;;;16.10;99.90;;;;;;5033508;28;20052;-82
2022/05/07 06:55:56;;;;;;;22.15;14.52;;;16.20;99.90;;;;;;5034847;28;20134;-81
2022/05/07 06:58:34;;;;;;;21.35;14.23;;;16.20;99.90;;;;;;5023868;28;20044;-81
2022/05/07 07:01:02;;;;;;;21.17;14.57;;;16.20;99.90;;;;;;5058651;28;20041;-81
2022/05/07 07:03:31;;;;;;;21.02;14.10;;;16.10;99.90;;;;;;5059995;28;20084;-79
2022/05/07 07:05:58;;;;;;;23.55;14.32;;;16.00;99.90;;;;;;5036365;28;20033;-80
2022/05/07 07:08:24;;;;;;;21.42;14.75;;;16.00;99.90;;;;;;5036119;28;20123;-79
2022/05/07 07:10:50;;;;;;;21.17;13.82;;;16.00;99.90;;;;;;5035673;28;20116;-81
2022/05/07 07:13:18;;;;;;;23.20;13.75;;;16.00;99.90;;;;;;5036099;28;20063;-82
2022/05/07 07:15:44;;;;;;;23.67;14.13;;;16.10;99.90;;;;;;5035931;28;20410;-81
2022/05/07 07:18:10;;;;;;;22.23;14.32;;;16.30;99.90;;;;;;5036022;28;20083;-76
2022/05/07 07:20:41;;;;;;;27.92;14.13;;;16.70;99.90;;;;;;5035335;28;20081;-76
2022/05/07 07:23:16;;;;;;;20.55;12.02;;;17.00;99.90;;;;;;5035660;28;20116;-76
2022/05/07 07:25:43;;;;;;;21.35;12.45;;;17.10;99.90;;;;;;5035430;28;20129;-74
2022/05/07 07:28:10;;;;;;;17.33;11.43;;;17.20;99.90;;;;;;5035515;28;20045;-74
2022/05/07 07:30:35;;;;;;;19.25;12.82;;;17.30;99.90;;;;;;5035311;28;20082;-80
2022/05/07 07:33:02;;;;;;;20.48;12.45;;;17.20;99.90;;;;;;5036344;28;20438;-75
2022/05/07 07:35:28;;;;;;;18.45;12.48;;;17.20;99.90;;;;;;5054138;28;20041;-81
2022/05/07 07:37:53;;;;;;;19.42;11.68;;;17.20;99.90;;;;;;5032849;28;20033;-81
2022/05/07 07:40:20;;;;;;;23.63;13.13;;;17.20;99.90;;;;;;5013415;28;20047;-81
2022/05/07 07:42:45;;;;;;;19.67;12.10;;;17.20;99.90;;;;;;5017463;28;20504;-79
2022/05/07 07:47:56;;;;;;;16.40;10.77;;;17.30;99.90;;;;;;5017176;28;20484;-81
2022/05/07 07:50:22;;;;;;;18.75;9.50;;;17.40;99.90;;;;;;5000471;28;20073;-81
2022/05/07 07:52:52;;;;;;;22.25;10.10;;;17.50;99.90;;;;;;5001604;28;20100;-80
2022/05/07 07:55:18;;;;;;;21.27;10.25;;;17.60;99.90;;;;;;5016899;28;20052;-80
2022/05/07 07:57:43;;;;;;;20.75;10.68;;;17.50;99.90;;;;;;5000084;28;20033;-80
2022/05/07 08:00:09;;;;;;;17.05;10.45;;;17.50;99.90;;;;;;4999311;28;20095;-80
2022/05/07 08:02:45;;;;;;;17.27;10.13;;;17.50;99.90;;;;;;5016800;28;20045;-82
2022/05/07 08:05:10;;;;;;;16.55;10.52;;;17.50;99.90;;;;;;5001537;28;20095;-80
2022/05/07 08:13:04;;;;;;;20.05;12.63;;;19.30;99.90;;;;;;5036579;28;20053;-81
2022/05/07 08:15:29;;;;;;;19.48;11.60;;;19.80;99.90;;;;;;5019247;28;20397;-81
2022/05/07 08:17:55;;;;;;;20.60;12.52;;;20.00;99.90;;;;;;5020402;28;20096;-82
2022/05/07 08:20:20;;;;;;;23.33;13.27;;;20.10;99.90;;;;;;5019928;28;20045;-80
2022/05/07 08:22:46;;;;;;;22.67;12.77;;;19.90;99.90;;;;;;5021175;28;20075;-81
2022/05/07 08:25:11;;;;;;;24.52;14.07;;;19.80;99.90;;;;;;5000673;28;20488;-80
2022/05/07 08:27:37;;;;;;;23.20;13.43;;;19.70;99.90;;;;;;5013295;28;20037;-76
2022/05/07 08:30:04;;;;;;;20.90;14.02;;;19.40;99.90;;;;;;5012987;28;20041;-79
2022/05/07 08:32:29;;;;;;;26.63;15.00;;;19.10;99.90;;;;;;5031689;28;20041;-73
2022/05/07 08:34:55;;;;;;;20.05;13.13;;;19.00;99.90;;;;;;5030908;28;20041;-80
2022/05/07 08:37:21;;;;;;;21.70;14.48;;;18.80;99.90;;;;;;5000017;28;20049;-81
2022/05/07 08:39:47;;;;;;;23.13;14.38;;;18.60;99.90;;;;;;4999268;28;20046;-82
2022/05/07 08:42:12;;;;;;;24.83;14.40;;;18.40;99.90;;;;;;4997702;28;20048;-82
2022/05/07 08:44:38;;;;;;;23.52;14.55;;;18.30;99.90;;;;;;4997349;28;20496;-82
2022/05/07 08:47:04;;;;;;;22.48;15.63;;;18.20;99.90;;;;;;4996884;28;20049;-82
2022/05/07 08:49:30;;;;;;;22.27;13.95;;;18.20;99.90;;;;;;4998373;28;20100;-81
2022/05/07 08:51:56;;;;;;;25.15;13.98;;;18.20;99.90;;;;;;5015410;28;20042;-82
2022/05/07 08:54:22;;;;;;;28.33;14.80;;;18.20;99.90;;;;;;4997384;28;20050;-81
2022/05/07 08:56:47;;;;;;;26.45;14.25;;;18.20;99.90;;;;;;4998707;28;20041;-79
2022/05/07 08:59:13;;;;;;;25.77;12.75;;;18.20;99.90;;;;;;4981164;28;20104;-81
2022/05/07 09:01:39;;;;;;;24.15;14.32;;;18.20;99.90;;;;;;5014184;28;20041;-81
2022/05/07 09:04:11;;;;;;;23.65;13.10;;;18.20;99.90;;;;;;4997589;28;20374;-81
2022/05/07 09:06:36;;;;;;;;;;;18.30;99.90;;;;;;4996799;28;20587;-80
2022/05/07 09:09:05;;;;;;;20.90;13.55;;;18.20;99.90;;;;;;4996804;28;19925;-80
2022/05/07 09:11:44;;;;;;;28.25;15.48;;;18.30;99.90;;;;;;4995673;28;20516;-81
2022/05/07 09:14:11;;;;;;;30.88;14.85;;;18.30;99.90;;;;;;4996022;28;20042;-79
2022/05/07 09:16:37;;;;;;;43.90;19.13;;;18.40;99.90;;;;;;4995209;28;20400;-82
2022/05/07 09:19:02;;;;;;;23.48;14.43;;;18.50;99.90;;;;;;4996427;28;20546;-82
2022/05/07 09:21:28;;;;;;;24.25;13.05;;;18.70;99.90;;;;;;5012877;28;20085;-80
2022/05/07 09:24:06;;;;;;;28.95;14.48;;;19.20;99.90;;;;;;5012346;28;20078;-81
2022/05/07 09:26:35;;;;;;;30.60;14.57;;;19.60;99.90;;;;;;4995972;28;20037;-79
2022/05/07 09:29:03;;;;;;;24.35;12.65;;;19.80;99.90;;;;;;4995914;28;20037;-79
2022/05/07 09:31:31;;;;;;;24.65;14.07;;;19.80;99.90;;;;;;4994841;28;20042;-80
2022/05/07 09:36:43;;;;;;;22.20;12.95;;;19.90;99.90;;;;;;4999196;28;20057;-81
2022/05/07 09:39:12;;;;;;;21.10;14.23;;;19.90;99.90;;;;;;4998187;28;20042;-81
2022/05/07 09:41:38;;;;;;;21.83;13.85;;;19.90;99.90;;;;;;4997840;28;20057;-82
2022/05/07 09:44:04;;;;;;;27.05;14.02;;;19.90;99.90;;;;;;4981135;28;20042;-81
2022/05/07 09:46:32;;;;;;;23.65;13.98;;;19.80;99.90;;;;;;4996713;28;20133;-81
2022/05/07 09:49:00;;;;;;;23.73;13.13;;;19.80;99.90;;;;;;4982204;28;20042;-81
2022/05/07 09:51:27;;;;;;;28.58;13.95;;;19.80;99.90;;;;;;4998036;28;20030;-80
2022/05/07 09:59:21;;;;;;;21.85;12.77;;;19.80;99.90;;;;;;4999151;28;20092;-79
2022/05/07 10:02:04;;;;;;;23.08;13.00;;;19.70;99.90;;;;;;5011580;28;20074;-79
2022/05/07 10:05:02;;;;;;;23.13;13.07;;;19.60;99.90;;;;;;4994081;28;20049;-78
2022/05/07 10:08:08;;;;;;;28.02;14.93;;;19.50;99.90;;;;;;4993737;28;20370;-78
2022/05/07 10:10:38;;;;;;;23.20;13.30;;;19.40;99.90;;;;;;4993329;28;20081;-78
2022/05/07 10:13:05;;;;;;;27.55;14.10;;;19.40;99.90;;;;;;4993475;28;20050;-78
2022/05/07 10:15:31;;;;;;;28.50;14.00;;;19.40;99.90;;;;;;4993640;28;20049;-79
2022/05/07 10:18:02;;;;;;;29.50;13.30;;;19.40;99.90;;;;;;4993622;28;20173;-79
2022/05/07 10:20:39;;;;;;;29.25;13.50;;;19.50;99.90;;;;;;4992982;28;20046;-78
2022/05/07 10:23:07;;;;;;;26.90;13.25;;;19.70;99.90;;;;;;4993976;28;20034;-79
2022/05/07 10:25:33;;;;;;;29.30;14.60;;;19.80;99.90;;;;;;4993360;28;20405;-78
2022/05/07 10:28:08;;;;;;;34.10;15.15;;;20.00;99.90;;;;;;4993060;28;20038;-79
2022/05/07 10:30:56;;;;;;;24.80;14.63;;;20.10;99.90;;;;;;4993119;28;20042;-78
2022/05/07 10:33:24;;;;;;;23.92;13.60;;;20.10;99.90;;;;;;4993768;28;20054;-78
2022/05/07 10:35:58;;;;;;;34.42;14.35;;;20.20;99.90;;;;;;4993355;28;20049;-78
2022/05/07 10:38:26;;;;;;;29.20;15.68;;;20.20;99.90;;;;;;4995851;28;20058;-79
2022/05/07 10:41:04;;;;;;;30.92;14.75;;;20.20;99.90;;;;;;4996898;28;20046;-79
2022/05/07 10:43:35;;;;;;;28.83;16.23;;;20.20;99.90;;;;;;4997557;28;20033;-78
2022/05/07 10:46:02;;;;;;;28.63;15.27;;;20.20;99.90;;;;;;4996914;28;20041;-78
2022/05/07 10:48:28;;;;;;;27.25;16.77;;;20.20;99.90;;;;;;4997212;28;20149;-79
2022/05/07 10:50:58;;;;;;;31.63;16.77;;;20.30;99.90;;;;;;4996990;28;20073;-79
2022/05/07 10:53:35;;;;;;;25.10;15.40;;;20.30;99.90;;;;;;4998054;28;20049;-78
2022/05/07 10:56:01;;;;;;;25.60;14.70;;;20.40;99.90;;;;;;5000308;28;20045;-78
2022/05/07 10:58:30;;;;;;;26.83;15.00;;;20.60;99.90;;;;;;5016251;28;20045;-78
2022/05/07 11:00:59;;;;;;;33.30;17.40;;;20.70;99.90;;;;;;5018411;28;20081;-78
2022/05/07 11:03:26;;;;;;;25.65;17.02;;;20.80;99.90;;;;;;5007789;28;20081;-78
2022/05/07 11:05:59;;;;;;;29.52;18.20;;;20.90;99.90;;;;;;4998007;28;20050;-79
2022/05/07 11:08:26;;;;;;;28.02;18.02;;;21.10;99.90;;;;;;4997663;28;20050;-79
2022/05/07 11:11:07;;;;;;;32.83;19.10;;;21.30;99.90;;;;;;4996668;28;20081;-78
2022/05/07 11:13:43;;;;;;;26.52;16.90;;;21.40;99.90;;;;;;4997022;28;20117;-79
2022/05/07 11:16:08;;;;;;;27.63;16.67;;;21.50;99.90;;;;;;5013241;28;20081;-79
2022/05/07 11:18:34;;;;;;;23.00;16.33;;;21.50;99.90;;;;;;4996757;28;20097;-78
2022/05/07 11:21:01;;;;;;;25.70;17.13;;;21.50;99.90;;;;;;4980174;28;20104;-79
2022/05/07 11:23:27;;;;;;;30.55;17.60;;;21.60;99.90;;;;;;4998169;28;20038;-79
2022/05/07 11:25:53;;;;;;;30.02;18.58;;;21.60;99.90;;;;;;5003999;28;20045;-79
2022/05/07 11:28:18;;;;;;;25.92;18.00;;;21.50;99.90;;;;;;5020168;28;20069;-78
2022/05/07 11:30:55;;;;;;;26.92;18.05;;;21.40;99.90;;;;;;5002472;28;20056;-78
2022/05/07 11:33:25;;;;;;;24.55;16.45;;;21.30;99.90;;;;;;5002731;28;20042;-79
2022/05/07 11:36:06;;;;;;;28.48;17.48;;;21.20;99.90;;;;;;5002657;28;20128;-79
2022/05/07 11:38:33;;;;;;;25.40;17.27;;;21.10;99.90;;;;;;5020156;28;20441;-79
2022/05/07 11:41:14;;;;;;;23.73;16.45;;;21.00;99.90;;;;;;5002843;28;20046;-79
2022/05/07 11:46:25;;;;;;;22.67;14.80;;;21.10;99.90;;;;;;5006372;28;20050;-80
2022/05/07 11:48:51;;;;;;;23.67;15.40;;;21.20;99.90;;;;;;5007813;28;20101;-80
2022/05/07 11:51:25;;;;;;;25.38;16.25;;;21.30;99.90;;;;;;4989425;28;20045;-79
2022/05/07 11:53:51;;;;;;;30.05;16.30;;;21.40;99.90;;;;;;4990256;28;20037;-79
2022/05/07 11:56:17;;;;;;;26.17;15.65;;;21.40;99.90;;;;;;5005991;28;20050;-80
2022/05/07 11:58:49;;;;;;;26.00;17.77;;;21.60;99.90;;;;;;5003361;28;20095;-80
2022/05/07 12:01:28;;;;;;;25.80;17.02;;;21.70;99.90;;;;;;4987429;28;20049;-80
2022/05/07 12:03:54;;;;;;;22.65;16.92;;;21.70;99.90;;;;;;5005344;28;20038;-81
2022/05/07 12:06:28;;;;;;;24.65;16.63;;;21.60;99.90;;;;;;5005629;28;20042;-81
2022/05/07 12:08:54;;;;;;;26.92;16.95;;;21.60;99.90;;;;;;5004427;28;20037;-81
2022/05/07 12:11:20;;;;;;;24.40;16.17;;;21.50;99.90;;;;;;4988414;28;20048;-81
2022/05/07 12:13:46;;;;;;;24.30;15.40;;;21.50;99.90;;;;;;5021442;28;20432;-82
2022/05/07 12:18:56;;;;;;;22.70;16.05;;;21.30;99.90;;;;;;5002877;28;20049;-80
2022/05/07 12:29:48;;;;;;;24.35;15.25;;;21.10;99.90;;;;;;5002606;28;20045;-79
2022/05/07 12:29:52;;;;;;;27.98;17.40;;;21.00;99.90;;;;;;5003865;28;20124;-81
2022/05/07 12:32:24;;;;;;;25.98;15.30;;;21.00;99.90;;;;;;5005067;28;20101;-82
2022/05/07 12:34:50;;;;;;;25.95;16.67;;;21.00;99.90;;;;;;4989768;28;20033;-81
2022/05/07 12:37:16;;;;;;;23.25;15.93;;;21.10;99.90;;;;;;4989948;28;20048;-80
2022/05/07 12:39:45;;;;;;;27.27;16.48;;;21.00;99.90;;;;;;5024486;28;20038;-82
2022/05/07 12:42:12;;;;;;;29.05;17.45;;;21.00;99.90;;;;;;4990644;28;20450;-81
2022/05/07 12:44:41;;;;;;;29.48;15.95;;;21.10;99.90;;;;;;5007529;28;20080;-81
2022/05/07 12:47:07;;;;;;;29.23;16.00;;;21.10;99.90;;;;;;5024743;28;20441;-80
2022/05/07 12:49:33;;;;;;;31.30;16.80;;;21.20;99.90;;;;;;4990527;28;20128;-83
2022/05/07 12:51:59;;;;;;;27.50;16.10;;;21.10;99.90;;;;;;5024492;28;20033;-80
2022/05/07 12:54:24;;;;;;;23.73;15.93;;;21.10;99.90;;;;;;5021569;28;20181;-77
2022/05/07 12:56:50;;;;;;;27.73;16.10;;;21.00;99.90;;;;;;5004274;28;20042;-79
2022/05/07 12:59:16;;;;;;;27.77;15.95;;;21.00;99.90;;;;;;4987109;28;20051;-79
2022/05/07 13:01:42;;;;;;;22.48;14.85;;;21.00;99.90;;;;;;4982682;28;20041;-78
2022/05/07 13:04:07;;;;;;;27.63;15.00;;;21.00;99.90;;;;;;5012713;28;20040;-77